Brunette Downs, Australia
Current Conditions -  °F | °C
As of 12:00 PM on Tuesday 23 Dec 2014 (Local Time) from YTNK Reporting Station
Clear Clear  
Wind Chill: 90°   Ceiling: Unl
Heat Index: 95°   Visibility: 6mi
Dew Point: 70°   Wind: 8mph
Humidity: 52%   Direction: 110°ESE
Pressure: 29.83"   Gusts: NA
Location:  18.63°S, 136.03°E
Report Text: YTNK 230300Z AUTO 11007KT 9999 // NCD 32/21 Q1010
Loading
Personal Weather Stations






























Interactive Weather Map New forecast layout! Learn more

10-Day Weather Forecast

Advertisements
Track Severe Weather on mobile